createdAt,value
2019-04-21T00:00:39.726Z,5.83
2019-04-21T00:03:18.259Z,5.30
2019-04-21T00:05:57.401Z,4.45
2019-04-21T00:13:29.492Z,4.72
2019-04-21T00:15:53.440Z,4.00
2019-04-21T00:18:47.671Z,4.17
2019-04-21T00:21:21.127Z,3.95
2019-04-21T00:23:58.712Z,4.62
2019-04-21T00:26:29.053Z,3.47
2019-04-21T00:29:11.147Z,3.83
2019-04-21T00:31:28.339Z,3.80
2019-04-21T00:33:47.788Z,4.30
2019-04-21T00:36:23.774Z,3.35
2019-04-21T00:39:23.265Z,4.83
2019-04-21T00:41:40.229Z,4.20
2019-04-21T00:44:00.721Z,3.87
2019-04-21T00:46:35.165Z,3.80
2019-04-21T00:49:05.900Z,3.95
2019-04-21T00:52:00.542Z,3.77
2019-04-21T00:54:24.606Z,3.52
2019-04-21T00:57:01.332Z,3.90
2019-04-21T00:59:25.632Z,3.60
2019-04-21T01:01:55.535Z,4.42
2019-04-21T01:04:33.797Z,4.70
2019-04-21T01:07:03.829Z,3.75
2019-04-21T01:09:27.611Z,3.80
2019-04-21T01:12:05.120Z,3.83
2019-04-21T01:14:41.952Z,4.58
2019-04-21T01:17:03.866Z,4.55
2019-04-21T01:19:33.708Z,4.15
2019-04-21T01:21:46.574Z,3.35
2019-04-21T01:24:21.940Z,4.53
2019-04-21T01:26:56.788Z,4.22
2019-04-21T01:29:41.464Z,4.25
2019-04-21T01:32:11.607Z,3.40
2019-04-21T01:34:39.352Z,4.00
2019-04-21T01:37:04.620Z,4.12
2019-04-21T01:39:50.236Z,3.45
2019-04-21T01:42:19.128Z,3.87
2019-04-21T01:44:46.272Z,3.35
2019-04-21T01:47:13.071Z,3.70
2019-04-21T01:49:37.059Z,3.25
2019-04-21T01:52:23.747Z,4.47
2019-04-21T01:55:06.398Z,4.08
2019-04-21T01:57:54.008Z,4.10
2019-04-21T02:00:36.811Z,3.85
2019-04-21T02:03:16.520Z,4.33
2019-04-21T02:05:44.380Z,4.67
2019-04-21T02:08:05.385Z,3.50
2019-04-21T02:10:50.651Z,4.58
2019-04-21T02:13:09.075Z,3.80
2019-04-21T02:15:42.238Z,3.67
2019-04-21T02:18:12.118Z,3.52
2019-04-21T02:20:32.763Z,4.35
2019-04-21T02:25:48.744Z,4.53
2019-04-21T02:28:21.776Z,4.65
2019-04-21T02:31:05.350Z,3.60
2019-04-21T02:36:18.990Z,4.45
2019-04-21T02:38:36.326Z,4.45
2019-04-21T02:41:01.871Z,3.80
2019-04-21T02:46:15.126Z,4.40
2019-04-21T02:48:39.103Z,5.00
2019-04-21T02:51:13.063Z,3.37
2019-04-21T02:53:53.637Z,4.10
2019-04-21T02:56:09.801Z,4.30
2019-04-21T02:58:59.734Z,4.95
2019-04-21T03:02:00.940Z,4.42
2019-04-21T03:04:30.416Z,4.00
2019-04-21T03:07:11.404Z,3.87
2019-04-21T03:09:30.806Z,3.60
2019-04-21T03:14:51.803Z,4.12
2019-04-21T03:17:05.728Z,3.90
2019-04-21T03:22:18.197Z,3.85
2019-04-21T03:24:53.541Z,3.92
2019-04-21T03:27:22.333Z,4.28
2019-04-21T03:29:48.680Z,4.30
2019-04-21T03:35:21.180Z,3.20
2019-04-21T03:37:27.452Z,3.58
2019-04-21T03:42:34.367Z,4.22
2019-04-21T03:44:48.304Z,4.30
2019-04-21T03:47:24.923Z,4.25
2019-04-21T03:49:54.671Z,4.17
2019-04-21T03:52:20.076Z,3.70
2019-04-21T03:58:17.926Z,4.85
2019-04-21T04:03:35.215Z,4.20
2019-04-21T04:08:51.609Z,4.97
2019-04-21T04:11:23.459Z,3.85
2019-04-21T04:16:20.317Z,3.80
2019-04-21T04:18:52.906Z,3.40
2019-04-21T04:21:30.252Z,4.10
2019-04-21T04:23:58.073Z,4.17
2019-04-21T04:26:29.076Z,4.40
2019-04-21T04:28:58.035Z,7.25
2019-04-21T04:31:32.086Z,19.37
2019-04-21T04:36:47.846Z,10.78
2019-04-21T04:39:36.290Z,9.70
2019-04-21T04:42:26.768Z,13.05
2019-04-21T04:44:54.233Z,15.30
2019-04-21T04:48:09.088Z,15.90
2019-04-21T04:49:53.533Z,15.72
2019-04-21T04:54:59.369Z,8.15
2019-04-21T04:57:22.162Z,6.45
2019-04-21T04:59:53.985Z,7.35
2019-04-21T05:04:59.174Z,6.58
2019-04-21T05:07:27.337Z,5.05
2019-04-21T05:09:55.580Z,7.00
2019-04-21T05:12:22.703Z,4.90
2019-04-21T05:14:52.903Z,5.50
2019-04-21T05:17:30.977Z,5.70
2019-04-21T05:22:21.903Z,4.70
2019-04-21T05:24:44.192Z,4.92
2019-04-21T05:27:49.712Z,5.65
2019-04-21T05:30:45.062Z,6.05
2019-04-21T05:33:39.832Z,5.28
2019-04-21T05:36:20.467Z,4.30
2019-04-21T05:39:02.556Z,4.50
2019-04-21T05:41:31.375Z,3.80
2019-04-21T05:44:13.343Z,4.25
2019-04-21T05:46:50.666Z,5.58
2019-04-21T05:49:27.950Z,4.05
2019-04-21T05:51:55.701Z,3.65
2019-04-21T05:54:39.689Z,4.53
2019-04-21T05:57:08.298Z,4.60
2019-04-21T05:59:41.729Z,4.25
2019-04-21T06:02:19.076Z,4.05
2019-04-21T06:04:56.593Z,4.55
2019-04-21T06:07:18.967Z,3.95
2019-04-21T06:09:53.869Z,4.20
2019-04-21T06:12:15.585Z,4.75
2019-04-21T06:14:48.272Z,4.60
2019-04-21T06:17:19.333Z,4.05
2019-04-21T06:19:52.751Z,4.33
2019-04-21T06:22:17.304Z,3.52
2019-04-21T06:25:15.751Z,3.80
2019-04-21T06:27:29.914Z,3.65
2019-04-21T06:29:55.304Z,4.37
2019-04-21T06:42:32.503Z,4.30
2019-04-21T06:45:07.311Z,4.10
2019-04-21T06:47:43.941Z,3.58
2019-04-21T06:50:02.136Z,3.75
2019-04-21T06:52:50.104Z,4.20
2019-04-21T06:55:12.640Z,3.58
2019-04-21T06:57:40.398Z,4.35
2019-04-21T07:00:06.281Z,3.50
2019-04-21T07:03:04.423Z,3.70
2019-04-21T07:05:17.115Z,3.75
2019-04-21T07:07:51.814Z,4.62
2019-04-21T07:10:19.553Z,3.25
2019-04-21T07:12:39.293Z,4.17
2019-04-21T07:15:18.729Z,3.87
2019-04-21T07:17:45.730Z,3.98
2019-04-21T07:20:18.872Z,3.87
2019-04-21T07:22:50.986Z,3.90
2019-04-21T07:25:23.876Z,3.87
2019-04-21T07:27:57.093Z,4.17
2019-04-21T07:30:26.683Z,3.37
2019-04-21T07:32:55.371Z,3.40
2019-04-21T07:35:23.587Z,3.20
2019-04-21T07:37:53.554Z,4.35
2019-04-21T07:40:19.063Z,3.27
2019-04-21T07:42:56.151Z,2.98
2019-04-21T07:45:22.440Z,4.50
2019-04-21T07:48:06.462Z,2.95
2019-04-21T07:50:46.385Z,4.12
2019-04-21T07:53:27.760Z,3.35
2019-04-21T07:55:32.613Z,3.52
2019-04-21T07:58:22.561Z,4.60
2019-04-21T08:00:57.707Z,3.52
2019-04-21T08:03:28.234Z,4.20
2019-04-21T08:05:58.976Z,3.40
2019-04-21T08:08:26.332Z,3.95
2019-04-21T08:10:56.768Z,3.87
2019-04-21T08:13:34.644Z,3.85
2019-04-21T08:15:56.387Z,3.30
2019-04-21T08:18:33.415Z,3.40
2019-04-21T08:21:02.760Z,3.50
2019-04-21T08:23:31.503Z,4.03
2019-04-21T08:26:05.886Z,3.05
2019-04-21T08:28:39.192Z,3.58
2019-04-21T08:31:10.262Z,3.27
2019-04-21T08:33:47.138Z,3.67
2019-04-21T08:36:18.970Z,3.62
2019-04-21T08:38:46.014Z,4.33
2019-04-21T08:41:15.239Z,3.87
2019-04-21T08:43:48.106Z,3.15
2019-04-21T08:48:54.323Z,2.85
2019-04-21T08:51:27.569Z,3.20
2019-04-21T08:54:07.368Z,3.47
2019-04-21T08:56:37.968Z,3.33
2019-04-21T08:59:21.953Z,4.30
2019-04-21T09:01:55.580Z,4.03
2019-04-21T09:04:39.258Z,3.83
2019-04-21T09:09:31.984Z,3.87
2019-04-21T09:12:01.661Z,3.47
2019-04-21T09:14:33.517Z,3.92
2019-04-21T09:16:56.364Z,3.80
2019-04-21T09:19:44.527Z,3.67
2019-04-21T09:22:05.606Z,3.95
2019-04-21T09:24:33.443Z,3.27
2019-04-21T09:27:07.116Z,3.25
2019-04-21T09:29:28.633Z,3.05
2019-04-21T09:31:55.483Z,3.55
2019-04-21T09:34:30.098Z,3.50
2019-04-21T09:37:03.346Z,3.55
2019-04-21T09:39:27.723Z,3.17
2019-04-21T09:42:00.335Z,3.20
2019-04-21T09:44:32.922Z,3.75
2019-04-21T09:47:01.250Z,3.10
2019-04-21T09:49:31.707Z,3.08
2019-04-21T09:51:59.963Z,3.62
2019-04-21T09:54:33.648Z,3.80
2019-04-21T09:57:06.094Z,3.40
2019-04-21T09:59:37.014Z,3.40
2019-04-21T10:02:09.566Z,3.47
2019-04-21T10:04:33.768Z,4.20
2019-04-21T10:07:04.491Z,3.47
2019-04-21T10:09:35.452Z,3.30
2019-04-21T10:12:05.247Z,3.22
2019-04-21T10:14:35.063Z,3.22
2019-04-21T10:17:39.462Z,3.10
2019-04-21T10:20:11.842Z,3.65
2019-04-21T10:22:41.438Z,3.30
2019-04-21T10:25:12.575Z,3.35
2019-04-21T10:27:43.087Z,3.95
2019-04-21T10:30:14.312Z,3.70
2019-04-21T10:32:43.729Z,3.77
2019-04-21T10:35:13.210Z,3.75
2019-04-21T10:37:53.705Z,3.15
2019-04-21T10:40:16.330Z,3.20
2019-04-21T10:42:45.977Z,3.42
2019-04-21T10:45:17.378Z,2.67
2019-04-21T10:47:47.209Z,2.77
2019-04-21T10:50:18.377Z,3.37
2019-04-21T10:53:02.988Z,3.60
2019-04-21T10:55:48.576Z,2.40
2019-04-21T10:58:18.214Z,3.52
2019-04-21T11:00:48.482Z,3.37
2019-04-21T11:03:38.351Z,3.33
2019-04-21T11:06:08.669Z,3.72
2019-04-21T11:08:45.041Z,2.75
2019-04-21T11:11:10.058Z,3.00
2019-04-21T11:13:40.834Z,2.80
2019-04-21T11:16:11.038Z,3.30
2019-04-21T11:18:41.954Z,3.40
2019-04-21T11:21:11.506Z,2.50
2019-04-21T11:23:40.878Z,2.47
2019-04-21T11:26:10.218Z,2.98
2019-04-21T11:28:40.745Z,2.75
2019-04-21T11:31:11.078Z,3.00
2019-04-21T11:33:40.691Z,2.60
2019-04-21T11:36:11.120Z,2.40
2019-04-21T11:39:05.600Z,2.22
2019-04-21T11:41:19.454Z,3.30
2019-04-21T11:43:48.978Z,2.55
2019-04-21T11:46:18.361Z,2.77
2019-04-21T11:48:48.339Z,2.85
2019-04-21T11:51:19.160Z,2.58
2019-04-21T11:53:48.772Z,2.40
2019-04-21T11:56:18.809Z,2.77
2019-04-21T11:58:47.889Z,3.00
2019-04-21T12:01:17.969Z,2.60
2019-04-21T12:03:47.607Z,4.12
2019-04-21T12:06:17.558Z,2.95
2019-04-21T12:08:49.870Z,2.85
2019-04-21T12:11:17.954Z,3.08
2019-04-21T12:13:47.976Z,3.72
2019-04-21T12:16:17.438Z,2.85
2019-04-21T12:18:47.219Z,2.70
2019-04-21T12:21:16.831Z,2.45
2019-04-21T12:23:46.463Z,3.20
2019-04-21T12:26:15.975Z,2.83
2019-04-21T12:28:45.999Z,2.92
2019-04-21T12:31:41.410Z,3.25
2019-04-21T12:34:12.198Z,2.98
2019-04-21T12:36:42.111Z,3.33
2019-04-21T12:39:12.972Z,2.50
2019-04-21T12:41:42.641Z,2.98
2019-04-21T12:44:12.914Z,2.85
2019-04-21T12:46:43.597Z,2.55
2019-04-21T12:49:13.776Z,2.62
2019-04-21T12:51:44.096Z,2.75
2019-04-21T12:54:13.530Z,2.22
2019-04-21T12:56:43.347Z,2.52
2019-04-21T12:59:12.992Z,2.80
2019-04-21T13:01:43.090Z,3.70
2019-04-21T13:04:13.405Z,3.40
2019-04-21T13:06:43.571Z,3.47
2019-04-21T13:09:16.378Z,4.00
2019-04-21T13:11:43.999Z,3.17
2019-04-21T13:14:13.710Z,3.10
2019-04-21T13:16:43.487Z,3.15
2019-04-21T13:19:13.383Z,3.15
2019-04-21T13:21:43.006Z,3.20
2019-04-21T13:24:13.607Z,3.35
2019-04-21T13:26:50.448Z,2.80
2019-04-21T13:29:14.606Z,2.80
2019-04-21T13:31:44.525Z,2.47
2019-04-21T13:34:14.263Z,2.40
2019-04-21T13:36:43.775Z,2.42
2019-04-21T13:39:55.222Z,3.27
2019-04-21T13:42:15.754Z,3.00
2019-04-21T13:44:35.456Z,3.30
2019-04-21T13:47:04.966Z,3.27
2019-04-21T13:49:35.078Z,2.37
2019-04-21T13:52:05.179Z,2.70
2019-04-21T13:54:35.665Z,2.05
2019-04-21T13:57:05.194Z,2.60
2019-04-21T13:59:34.533Z,2.47
2019-04-21T14:02:04.738Z,1.95
2019-04-21T14:04:35.537Z,2.80
2019-04-21T14:07:06.025Z,2.25
2019-04-21T14:09:43.907Z,2.50
2019-04-21T14:12:07.623Z,2.40
2019-04-21T14:14:38.334Z,2.27
2019-04-21T14:17:08.909Z,3.00
2019-04-21T14:19:39.460Z,2.40
2019-04-21T14:22:11.608Z,2.00
2019-04-21T14:24:39.920Z,2.20
2019-04-21T14:27:10.163Z,2.20
2019-04-21T14:29:39.583Z,2.92
2019-04-21T14:32:10.482Z,2.45
2019-04-21T14:34:40.086Z,2.10
2019-04-21T14:37:10.770Z,1.70
2019-04-21T14:39:50.265Z,2.45
2019-04-21T14:42:13.942Z,2.05
2019-04-21T14:44:45.073Z,2.05
2019-04-21T14:47:34.983Z,1.70
2019-04-21T14:50:15.927Z,2.02
2019-04-21T14:52:46.598Z,1.92
2019-04-21T14:55:20.823Z,1.75
2019-04-21T14:57:51.599Z,1.50
2019-04-21T15:00:22.894Z,1.85
2019-04-21T15:02:53.721Z,1.52
2019-04-21T15:05:23.327Z,1.87
2019-04-21T15:07:55.100Z,1.60
2019-04-21T15:10:27.056Z,1.42
2019-04-21T15:12:56.003Z,1.85
2019-04-21T15:15:25.654Z,2.20
2019-04-21T15:17:55.707Z,1.70
2019-04-21T15:20:25.627Z,1.82
2019-04-21T15:22:56.624Z,2.33
2019-04-21T15:25:26.115Z,1.80
2019-04-21T15:27:56.915Z,2.12
2019-04-21T15:30:26.896Z,2.10
2019-04-21T15:32:56.460Z,2.22
2019-04-21T15:35:26.928Z,1.67
2019-04-21T15:37:58.029Z,2.15
2019-04-21T15:40:37.463Z,1.70
2019-04-21T15:43:00.158Z,1.87
2019-04-21T15:45:30.601Z,2.10
2019-04-21T15:48:00.483Z,1.92
2019-04-21T15:50:30.178Z,2.10
2019-04-21T15:53:03.513Z,2.25
2019-04-21T15:55:57.004Z,2.33
2019-04-21T15:58:52.676Z,2.17
2019-04-21T16:01:56.844Z,2.52
2019-04-21T16:04:26.214Z,2.22
2019-04-21T16:06:55.610Z,2.50
2019-04-21T16:09:26.946Z,2.37
2019-04-21T16:11:55.994Z,2.05
2019-04-21T16:14:26.890Z,2.40
2019-04-21T16:16:57.145Z,2.62
2019-04-21T16:19:27.198Z,2.10
2019-04-21T16:21:56.867Z,2.05
2019-04-21T16:24:27.370Z,1.95
2019-04-21T16:27:01.310Z,3.00
2019-04-21T16:29:29.240Z,3.00
2019-04-21T16:31:59.639Z,2.65
2019-04-21T16:34:39.013Z,2.50
2019-04-21T16:37:01.398Z,2.35
2019-04-21T16:39:31.535Z,2.87
2019-04-21T16:42:02.457Z,2.75
2019-04-21T16:44:31.925Z,2.60
2019-04-21T16:47:01.420Z,3.08
2019-04-21T16:49:31.779Z,3.10
2019-04-21T16:52:16.439Z,2.17
2019-04-21T16:54:49.706Z,3.05
2019-04-21T16:57:25.882Z,2.45
2019-04-21T17:00:00.119Z,2.30
2019-04-21T17:02:30.403Z,2.33
2019-04-21T17:05:00.403Z,2.85
2019-04-21T17:07:30.458Z,1.70
2019-04-21T17:09:59.933Z,2.40
2019-04-21T17:12:30.694Z,2.87
2019-04-21T17:15:13.899Z,3.47
2019-04-21T17:17:49.675Z,2.45
2019-04-21T17:20:17.206Z,2.35
2019-04-21T17:22:33.690Z,2.85
2019-04-21T17:25:04.459Z,2.55
2019-04-21T17:27:36.531Z,2.92
2019-04-21T17:30:08.452Z,2.55
2019-04-21T17:32:45.428Z,2.55
2019-04-21T17:35:10.330Z,2.80
2019-04-21T17:37:40.436Z,2.35
2019-04-21T17:40:11.530Z,2.20
2019-04-21T17:42:48.179Z,3.20
2019-04-21T17:45:13.209Z,3.17
2019-04-21T17:47:49.907Z,2.70
2019-04-21T17:50:27.498Z,2.65
2019-04-21T17:53:06.565Z,2.40
2019-04-21T17:55:36.990Z,3.10
2019-04-21T17:58:16.320Z,3.08
2019-04-21T18:03:40.399Z,2.25
2019-04-21T18:05:56.298Z,1.95
2019-04-21T18:08:30.619Z,2.67
2019-04-21T18:10:55.456Z,2.30
2019-04-21T18:13:19.545Z,2.60
2019-04-21T18:16:02.877Z,2.50
2019-04-21T18:18:19.052Z,2.25
2019-04-21T18:20:54.995Z,2.70
2019-04-21T18:23:42.895Z,2.52
2019-04-21T18:26:07.673Z,2.30
2019-04-21T18:28:32.570Z,2.40
2019-04-21T18:31:06.864Z,2.90
2019-04-21T18:33:42.321Z,2.67
2019-04-21T18:36:42.289Z,2.90
2019-04-21T18:39:34.194Z,2.58
2019-04-21T18:42:21.224Z,2.85
2019-04-21T18:45:28.477Z,2.50
2019-04-21T18:47:55.535Z,2.85
2019-04-21T18:50:39.233Z,2.55
2019-04-21T18:53:36.466Z,2.55
2019-04-21T18:55:58.309Z,3.00
2019-04-21T18:58:22.347Z,2.35
2019-04-21T19:00:53.313Z,2.60
2019-04-21T19:03:31.909Z,2.10
2019-04-21T19:06:02.778Z,2.85
2019-04-21T19:08:46.814Z,2.62
2019-04-21T19:11:19.092Z,3.12
2019-04-21T19:19:35.404Z,2.75
2019-04-21T19:21:28.369Z,3.02
2019-04-21T19:24:18.353Z,3.40
2019-04-21T19:26:49.437Z,2.30
2019-04-21T19:29:19.690Z,2.70
2019-04-21T19:31:46.701Z,3.25
2019-04-21T19:34:02.140Z,2.70
2019-04-21T19:36:25.617Z,2.45
2019-04-21T19:39:06.296Z,3.33
2019-04-21T19:41:41.215Z,3.67
2019-04-21T19:44:13.639Z,3.00
2019-04-21T19:46:42.425Z,3.10
2019-04-21T19:49:24.175Z,3.47
2019-04-21T19:51:40.552Z,2.62
2019-04-21T19:54:09.911Z,3.17
2019-04-21T19:56:32.349Z,3.00
2019-04-21T19:59:03.468Z,2.72
2019-04-21T20:01:33.186Z,3.10
2019-04-21T20:04:04.543Z,2.83
2019-04-21T20:06:47.580Z,3.10
2019-04-21T20:09:24.852Z,2.55
2019-04-21T20:11:51.072Z,3.00
2019-04-21T20:16:52.872Z,3.50
2019-04-21T20:19:15.223Z,3.40
2019-04-21T20:21:43.366Z,3.10
2019-04-21T20:24:16.085Z,3.10
2019-04-21T20:26:55.691Z,3.35
2019-04-21T20:29:34.479Z,2.77
2019-04-21T20:32:14.099Z,3.30
2019-04-21T20:34:41.015Z,3.22
2019-04-21T20:37:07.585Z,2.85
2019-04-21T20:39:23.531Z,2.90
2019-04-21T20:42:03.868Z,3.42
2019-04-21T20:44:37.319Z,3.00
2019-04-21T20:47:03.787Z,2.60
2019-04-21T20:49:33.609Z,2.87
2019-04-21T20:52:29.495Z,3.90
2019-04-21T20:54:40.796Z,3.15
2019-04-21T20:57:11.517Z,3.70
2019-04-21T20:59:40.876Z,2.80
2019-04-21T21:02:14.685Z,3.12
2019-04-21T21:04:40.320Z,3.77
2019-04-21T21:07:28.303Z,3.25
2019-04-21T21:09:57.728Z,2.75
2019-04-21T21:12:31.773Z,2.50
2019-04-21T21:14:47.464Z,3.10
2019-04-21T21:17:34.257Z,3.05
2019-04-21T21:19:53.357Z,4.35
2019-04-21T21:22:18.296Z,3.70
2019-04-21T21:24:57.127Z,3.02
2019-04-21T21:27:25.214Z,2.80
2019-04-21T21:29:56.145Z,3.40
2019-04-21T21:32:44.884Z,3.80
2019-04-21T21:34:56.860Z,3.27
2019-04-21T21:40:04.124Z,2.90
2019-04-21T21:42:23.258Z,3.22
2019-04-21T21:44:54.595Z,2.70
2019-04-21T21:47:30.437Z,3.30
2019-04-21T21:50:02.515Z,2.87
2019-04-21T21:52:35.368Z,3.45
2019-04-21T21:54:51.853Z,3.05
2019-04-21T21:57:22.818Z,2.92
2019-04-21T21:59:59.037Z,3.10
2019-04-21T22:02:33.050Z,3.45
2019-04-21T22:05:06.636Z,3.60
2019-04-21T22:07:29.664Z,3.77
2019-04-21T22:09:58.045Z,4.40
2019-04-21T22:12:35.195Z,3.70
2019-04-21T22:15:04.551Z,3.33
2019-04-21T22:17:46.794Z,2.98
2019-04-21T22:20:21.494Z,3.20
2019-04-21T22:22:43.971Z,3.35
2019-04-21T22:25:10.648Z,3.15
2019-04-21T22:27:34.993Z,2.95
2019-04-21T22:30:10.519Z,3.02
2019-04-21T22:32:38.660Z,3.30
2019-04-21T22:35:16.395Z,4.10
2019-04-21T22:37:51.346Z,3.37
2019-04-21T22:40:22.978Z,3.70
2019-04-21T22:42:54.563Z,3.47
2019-04-21T22:45:15.475Z,4.03
2019-04-21T22:47:46.541Z,3.37
2019-04-21T22:50:28.849Z,2.95
2019-04-21T22:53:04.160Z,3.37
2019-04-21T22:55:33.456Z,2.92
2019-04-21T22:58:02.035Z,3.20
2019-04-21T23:00:37.779Z,3.00
2019-04-21T23:03:10.720Z,3.83
2019-04-21T23:05:38.324Z,3.10
2019-04-21T23:08:07.209Z,4.05
2019-04-21T23:10:37.083Z,4.00
2019-04-21T23:13:12.118Z,3.22
2019-04-21T23:15:43.497Z,3.00
2019-04-21T23:18:24.951Z,3.40
2019-04-21T23:20:56.743Z,3.85
2019-04-21T23:23:30.306Z,3.42
2019-04-21T23:25:53.140Z,4.30
2019-04-21T23:28:23.550Z,3.50
2019-04-21T23:31:05.614Z,2.87
2019-04-21T23:33:12.895Z,3.33
2019-04-21T23:35:43.550Z,3.70
2019-04-21T23:38:12.488Z,3.62
2019-04-21T23:40:48.732Z,3.33
2019-04-21T23:43:18.586Z,3.92
2019-04-21T23:45:44.746Z,3.77
2019-04-21T23:48:26.006Z,2.83
2019-04-21T23:50:51.357Z,3.35
2019-04-21T23:53:13.487Z,2.80
2019-04-21T23:55:43.394Z,4.00
2019-04-21T23:58:19.568Z,3.08
